sensor_id;sensor_type;location;lat;lon;timestamp;pressure;altitude;pressure_sealevel;temperature;humidity
74552;BME280;63025;55.472;38.432;2022-09-12T00:00:12;100463.59;;;11.17;60.13
74552;BME280;63025;55.472;38.432;2022-09-12T00:02:40;100460.47;;;11.14;60.20
74552;BME280;63025;55.472;38.432;2022-09-12T00:05:06;100459.84;;;11.12;60.36
74552;BME280;63025;55.472;38.432;2022-09-12T00:07:33;100458.81;;;11.13;60.53
74552;BME280;63025;55.472;38.432;2022-09-12T00:09:58;100452.84;;;11.11;60.83
74552;BME280;63025;55.472;38.432;2022-09-12T00:12:24;100453.63;;;11.11;61.11
74552;BME280;63025;55.472;38.432;2022-09-12T00:14:50;100446.63;;;11.10;60.95
74552;BME280;63025;55.472;38.432;2022-09-12T00:17:16;100448.50;;;11.10;61.14
74552;BME280;63025;55.472;38.432;2022-09-12T00:19:41;100443.31;;;11.08;61.31
74552;BME280;63025;55.472;38.432;2022-09-12T00:22:07;100434.41;;;11.08;61.57
74552;BME280;63025;55.472;38.432;2022-09-12T00:24:33;100434.81;;;11.04;61.88
74552;BME280;63025;55.472;38.432;2022-09-12T00:26:58;100435.63;;;11.05;61.86
74552;BME280;63025;55.472;38.432;2022-09-12T00:29:24;100445.56;;;11.04;61.73
74552;BME280;63025;55.472;38.432;2022-09-12T00:31:50;100445.13;;;11.01;61.78
74552;BME280;63025;55.472;38.432;2022-09-12T00:34:16;100445.56;;;10.98;62.05
74552;BME280;63025;55.472;38.432;2022-09-12T00:36:41;100435.81;;;10.97;62.20
74552;BME280;63025;55.472;38.432;2022-09-12T00:39:07;100430.63;;;10.95;61.97
74552;BME280;63025;55.472;38.432;2022-09-12T00:41:38;100434.16;;;10.96;62.49
74552;BME280;63025;55.472;38.432;2022-09-12T00:47:10;100429.81;;;10.88;62.36
74552;BME280;63025;55.472;38.432;2022-09-12T00:49:56;100425.03;;;10.90;62.62
74552;BME280;63025;55.472;38.432;2022-09-12T00:52:28;100429.38;;;10.91;62.86
74552;BME280;63025;55.472;38.432;2022-09-12T00:55:04;100430.41;;;10.90;63.46
74552;BME280;63025;55.472;38.432;2022-09-12T00:57:35;100436.00;;;10.89;63.95
74552;BME280;63025;55.472;38.432;2022-09-12T01:00:10;100434.16;;;10.89;64.39
74552;BME280;63025;55.472;38.432;2022-09-12T01:02:45;100431.03;;;10.86;64.58
74552;BME280;63025;55.472;38.432;2022-09-12T01:05:13;100430.59;;;10.82;64.71
74552;BME280;63025;55.472;38.432;2022-09-12T01:07:39;100428.09;;;10.81;64.71
74552;BME280;63025;55.472;38.432;2022-09-12T01:10:06;100435.34;;;10.80;65.02
74552;BME280;63025;55.472;38.432;2022-09-12T01:12:37;100431.22;;;10.78;65.70
74552;BME280;63025;55.472;38.432;2022-09-12T01:15:04;100433.47;;;10.74;66.27
74552;BME280;63025;55.472;38.432;2022-09-12T01:20:30;100429.31;;;10.72;66.92
74552;BME280;63025;55.472;38.432;2022-09-12T01:26:14;100433.00;;;10.64;67.38
74552;BME280;63025;55.472;38.432;2022-09-12T01:34:31;100425.94;;;10.56;68.07
74552;BME280;63025;55.472;38.432;2022-09-12T01:39:42;100423.47;;;10.55;67.63
74552;BME280;63025;55.472;38.432;2022-09-12T01:42:49;100426.53;;;10.52;68.03
74552;BME280;63025;55.472;38.432;2022-09-12T01:45:28;100410.59;;;10.50;68.12
74552;BME280;63025;55.472;38.432;2022-09-12T01:50:33;100422.63;;;10.54;68.01
74552;BME280;63025;55.472;38.432;2022-09-12T01:53:04;100425.50;;;10.53;67.96
74552;BME280;63025;55.472;38.432;2022-09-12T01:55:43;100429.63;;;10.49;68.12
74552;BME280;63025;55.472;38.432;2022-09-12T01:58:21;100429.63;;;10.49;68.00
74552;BME280;63025;55.472;38.432;2022-09-12T02:01:15;100429.63;;;10.49;68.08
74552;BME280;63025;55.472;38.432;2022-09-12T02:03:50;100431.28;;;10.50;67.91
74552;BME280;63025;55.472;38.432;2022-09-12T02:06:24;100428.59;;;10.50;68.04
74552;BME280;63025;55.472;38.432;2022-09-12T02:08:57;100425.72;;;10.51;68.46
74552;BME280;63025;55.472;38.432;2022-09-12T02:11:25;100424.25;;;10.49;68.37
74552;BME280;63025;55.472;38.432;2022-09-12T02:14:05;100431.28;;;10.50;68.26
74552;BME280;63025;55.472;38.432;2022-09-12T02:19:16;100430.41;;;10.43;68.73
74552;BME280;63025;55.472;38.432;2022-09-12T02:21:51;100434.53;;;10.39;68.86
74552;BME280;63025;55.472;38.432;2022-09-12T02:24:19;100433.09;;;10.36;69.04
74552;BME280;63025;55.472;38.432;2022-09-12T02:26:53;100425.81;;;10.30;68.87
74552;BME280;63025;55.472;38.432;2022-09-12T02:29:20;100428.06;;;10.26;68.84
74552;BME280;63025;55.472;38.432;2022-09-12T02:31:48;100420.63;;;10.28;68.90
74552;BME280;63025;55.472;38.432;2022-09-12T02:39:27;100420.41;;;10.23;69.45
74552;BME280;63025;55.472;38.432;2022-09-12T02:41:58;100425.78;;;10.23;69.27
74552;BME280;63025;55.472;38.432;2022-09-12T02:44:26;100425.78;;;10.23;69.49
74552;BME280;63025;55.472;38.432;2022-09-12T02:46:55;100430.13;;;10.24;69.64
74552;BME280;63025;55.472;38.432;2022-09-12T02:49:23;100435.50;;;10.24;69.84
74552;BME280;63025;55.472;38.432;2022-09-12T02:51:49;100423.72;;;10.25;69.74
74552;BME280;63025;55.472;38.432;2022-09-12T02:54:16;100426.22;;;10.27;70.06
74552;BME280;63025;55.472;38.432;2022-09-12T02:56:43;100420.63;;;10.28;70.25
74552;BME280;63025;55.472;38.432;2022-09-12T02:59:12;100428.06;;;10.26;70.26
74552;BME280;63025;55.472;38.432;2022-09-12T03:10:20;100417.91;;;10.22;70.84
74552;BME280;63025;55.472;38.432;2022-09-12T03:13:04;100409.22;;;10.20;70.82
74552;BME280;63025;55.472;38.432;2022-09-12T03:21:10;100415.88;;;10.24;71.27
74552;BME280;63025;55.472;38.432;2022-09-12T03:24:02;100411.31;;;10.24;71.58
74552;BME280;63025;55.472;38.432;2022-09-12T03:26:52;100403.25;;;10.24;71.57
74552;BME280;63025;55.472;38.432;2022-09-12T03:29:20;100413.38;;;10.22;71.84
74552;BME280;63025;55.472;38.432;2022-09-12T03:31:54;100416.06;;;10.22;71.97
74552;BME280;63025;55.472;38.432;2022-09-12T03:34:21;100414.19;;;10.23;71.57
74552;BME280;63025;55.472;38.432;2022-09-12T03:36:47;100421.22;;;10.24;72.08
74552;BME280;63025;55.472;38.432;2022-09-12T03:39:13;100415.03;;;10.23;72.06
74552;BME280;63025;55.472;38.432;2022-09-12T03:41:39;100420.78;;;10.20;72.04
74552;BME280;63025;55.472;38.432;2022-09-12T03:44:05;100410.63;;;10.16;72.43
74552;BME280;63025;55.472;38.432;2022-09-12T03:46:31;100415.81;;;10.17;72.08
74552;BME280;63025;55.472;38.432;2022-09-12T03:48:57;100422.59;;;10.13;72.70
74552;BME280;63025;55.472;38.432;2022-09-12T03:51:22;100409.78;;;10.15;72.86
74552;BME280;63025;55.472;38.432;2022-09-12T03:53:48;100416.19;;;10.14;72.78
74552;BME280;63025;55.472;38.432;2022-09-12T03:56:15;100410.44;;;10.17;72.92
74552;BME280;63025;55.472;38.432;2022-09-12T03:58:41;100402.56;;;10.16;73.05
74552;BME280;63025;55.472;38.432;2022-09-12T04:01:17;100406.09;;;10.16;72.74
74552;BME280;63025;55.472;38.432;2022-09-12T04:03:45;100401.53;;;10.17;73.14
74552;BME280;63025;55.472;38.432;2022-09-12T04:06:13;100405.88;;;10.18;73.51
74552;BME280;63025;55.472;38.432;2022-09-12T04:08:40;100405.19;;;10.09;73.63
74552;BME280;63025;55.472;38.432;2022-09-12T04:11:12;100412.41;;;10.09;73.48
74552;BME280;63025;55.472;38.432;2022-09-12T04:13:39;100418.63;;;10.09;73.85
74552;BME280;63025;55.472;38.432;2022-09-12T04:16:05;100421.13;;;10.11;73.54
74552;BME280;63025;55.472;38.432;2022-09-12T04:18:32;100411.66;;;10.15;73.46
74552;BME280;63025;55.472;38.432;2022-09-12T04:21:00;100416.19;;;10.14;73.69
74552;BME280;63025;55.472;38.432;2022-09-12T04:23:27;100419.06;;;10.13;74.02
74552;BME280;63025;55.472;38.432;2022-09-12T04:25:54;100413.44;;;10.08;74.03
74552;BME280;63025;55.472;38.432;2022-09-12T04:28:20;100408.78;;;10.16;74.05
74552;BME280;63025;55.472;38.432;2022-09-12T04:30:46;100416.69;;;10.24;73.84
74552;BME280;63025;55.472;38.432;2022-09-12T04:33:12;100410.94;;;10.27;73.82
74552;BME280;63025;55.472;38.432;2022-09-12T04:35:37;100409.88;;;10.28;74.10
74552;BME280;63025;55.472;38.432;2022-09-12T04:38:03;100414.22;;;10.29;74.07
74552;BME280;63025;55.472;38.432;2022-09-12T04:40:29;100418.56;;;10.30;74.17
74552;BME280;63025;55.472;38.432;2022-09-12T04:42:55;100408.66;;;10.31;74.18
74552;BME280;63025;55.472;38.432;2022-09-12T04:45:21;100404.94;;;10.32;73.83
74552;BME280;63025;55.472;38.432;2022-09-12T04:47:47;100408.91;;;10.36;74.10
74552;BME280;63025;55.472;38.432;2022-09-12T04:50:13;100403.91;;;10.33;74.17
74552;BME280;63025;55.472;38.432;2022-09-12T04:52:40;100406.03;;;10.38;74.26
74552;BME280;63025;55.472;38.432;2022-09-12T04:55:07;100393.63;;;10.37;73.98
74552;BME280;63025;55.472;38.432;2022-09-12T04:57:32;100403.56;;;10.43;74.06
74552;BME280;63025;55.472;38.432;2022-09-12T04:59:58;100402.34;;;10.45;74.07
74552;BME280;63025;55.472;38.432;2022-09-12T05:02:24;100390.38;;;10.48;74.22
74552;BME280;63025;55.472;38.432;2022-09-12T05:04:50;100403.56;;;10.49;74.16
74552;BME280;63025;55.472;38.432;2022-09-12T05:07:17;100407.09;;;10.50;74.16
74552;BME280;63025;55.472;38.432;2022-09-12T05:09:44;100407.91;;;10.50;74.27
74552;BME280;63025;55.472;38.432;2022-09-12T05:12:10;100412.88;;;10.47;74.47
74552;BME280;63025;55.472;38.432;2022-09-12T05:14:36;100419.28;;;10.46;74.18
74552;BME280;63025;55.472;38.432;2022-09-12T05:17:03;100404.63;;;10.48;74.33
74552;BME280;63025;55.472;38.432;2022-09-12T05:19:30;100409.38;;;10.46;74.64
74552;BME280;63025;55.472;38.432;2022-09-12T05:21:57;100407.50;;;10.47;74.87
74552;BME280;63025;55.472;38.432;2022-09-12T05:24:24;100406.50;;;10.48;74.83
74552;BME280;63025;55.472;38.432;2022-09-12T05:26:50;100404.41;;;10.50;75.05
74552;BME280;63025;55.472;38.432;2022-09-12T05:29:16;100401.97;;;10.55;75.23
74552;BME280;63025;55.472;38.432;2022-09-12T05:31:42;100407.16;;;10.63;75.26
74552;BME280;63025;55.472;38.432;2022-09-12T05:34:07;100402.41;;;10.65;75.29
74552;BME280;63025;55.472;38.432;2022-09-12T05:36:35;100403.69;;;10.69;75.07
74552;BME280;63025;55.472;38.432;2022-09-12T05:39:02;100399.53;;;10.73;75.39
74552;BME280;63025;55.472;38.432;2022-09-12T05:41:30;100399.56;;;10.80;75.47
74552;BME280;63025;55.472;38.432;2022-09-12T05:43:59;100393.00;;;10.89;75.05
74552;BME280;63025;55.472;38.432;2022-09-12T05:46:31;100394.03;;;10.94;75.27
74552;BME280;63025;55.472;38.432;2022-09-12T05:49:02;100393.44;;;10.99;75.14
74552;BME280;63025;55.472;38.432;2022-09-12T05:51:31;100395.47;;;11.03;75.38
74552;BME280;63025;55.472;38.432;2022-09-12T05:53:59;100390.53;;;11.07;75.19
74552;BME280;63025;55.472;38.432;2022-09-12T05:56:28;100389.72;;;11.07;75.03
74552;BME280;63025;55.472;38.432;2022-09-12T05:58:56;100398.81;;;11.12;75.26
74552;BME280;63025;55.472;38.432;2022-09-12T06:01:22;100390.97;;;11.11;75.01
74552;BME280;63025;55.472;38.432;2022-09-12T06:03:50;100391.78;;;11.11;75.06
74552;BME280;63025;55.472;38.432;2022-09-12T06:06:20;100386.63;;;11.16;75.03
74552;BME280;63025;55.472;38.432;2022-09-12T06:08:48;100396.56;;;11.16;75.12
74552;BME280;63025;55.472;38.432;2022-09-12T06:11:19;100397.19;;;11.18;75.38
74552;BME280;63025;55.472;38.432;2022-09-12T06:13:46;100389.94;;;11.25;75.25
74552;BME280;63025;55.472;38.432;2022-09-12T06:16:20;100397.59;;;11.28;75.24
74552;BME280;63025;55.472;38.432;2022-09-12T06:18:48;100402.75;;;11.23;75.31
74552;BME280;63025;55.472;38.432;2022-09-12T06:21:14;100399.03;;;11.24;75.33
74552;BME280;63025;55.472;38.432;2022-09-12T06:23:40;100398.00;;;11.25;75.16
74552;BME280;63025;55.472;38.432;2022-09-12T06:26:08;100411.69;;;11.30;75.08
74552;BME280;63025;55.472;38.432;2022-09-12T06:28:36;100410.66;;;11.31;75.04
74552;BME280;63025;55.472;38.432;2022-09-12T06:31:16;100407.75;;;11.39;75.17
74552;BME280;63025;55.472;38.432;2022-09-12T06:33:45;100412.13;;;11.40;74.96
74552;BME280;63025;55.472;38.432;2022-09-12T06:36:16;100406.09;;;11.31;74.90
74552;BME280;63025;55.472;38.432;2022-09-12T06:38:43;100414.19;;;11.38;74.89
74552;BME280;63025;55.472;38.432;2022-09-12T06:41:11;100411.72;;;11.50;74.75
74552;BME280;63025;55.472;38.432;2022-09-12T06:43:38;100422.47;;;11.56;74.72
74552;BME280;63025;55.472;38.432;2022-09-12T06:46:04;100422.06;;;11.66;74.40
74552;BME280;63025;55.472;38.432;2022-09-12T06:48:30;100421.69;;;11.82;74.27
74552;BME280;63025;55.472;38.432;2022-09-12T06:51:03;100437.22;;;11.80;73.92
74552;BME280;63025;55.472;38.432;2022-09-12T06:53:31;100439.88;;;11.67;73.70
74552;BME280;63025;55.472;38.432;2022-09-12T06:55:59;100437.56;;;11.64;73.62
74552;BME280;63025;55.472;38.432;2022-09-12T06:58:26;100444.22;;;11.74;73.41
74552;BME280;63025;55.472;38.432;2022-09-12T07:01:22;100439.06;;;11.73;73.41
74552;BME280;63025;55.472;38.432;2022-09-12T07:03:47;100446.72;;;11.69;73.69
74552;BME280;63025;55.472;38.432;2022-09-12T07:06:15;100445.25;;;11.73;73.69
74552;BME280;63025;55.472;38.432;2022-09-12T07:08:41;100436.75;;;11.50;73.89
74552;BME280;63025;55.472;38.432;2022-09-12T07:11:12;100442.16;;;11.70;73.88
74552;BME280;63025;55.472;38.432;2022-09-12T07:13:39;100443.81;;;11.84;73.52
74552;BME280;63025;55.472;38.432;2022-09-12T07:16:06;100445.28;;;11.93;73.05
74552;BME280;63025;55.472;38.432;2022-09-12T07:18:33;100436.38;;;11.93;72.90
74552;BME280;63025;55.472;38.432;2022-09-12T07:21:00;100434.72;;;11.92;72.74
74552;BME280;63025;55.472;38.432;2022-09-12T07:23:27;100436.53;;;11.65;72.53
74552;BME280;63025;55.472;38.432;2022-09-12T07:25:54;100436.13;;;11.74;72.41
74552;BME280;63025;55.472;38.432;2022-09-12T07:28:24;100434.28;;;11.75;72.52
74552;BME280;63025;55.472;38.432;2022-09-12T07:30:50;100443.84;;;11.77;72.58
74552;BME280;63025;55.472;38.432;2022-09-12T07:33:37;100435.28;;;11.74;72.41
74552;BME280;63025;55.472;38.432;2022-09-12T07:36:05;100431.38;;;11.70;72.33
74552;BME280;63025;55.472;38.432;2022-09-12T07:38:31;100427.69;;;11.77;72.34
74552;BME280;63025;55.472;38.432;2022-09-12T07:40:57;100427.06;;;11.75;71.92
74552;BME280;63025;55.472;38.432;2022-09-12T07:43:23;100437.59;;;11.70;71.98
74552;BME280;63025;55.472;38.432;2022-09-12T07:45:55;100438.59;;;11.63;71.99
74552;BME280;63025;55.472;38.432;2022-09-12T07:48:21;100430.75;;;11.61;72.14
74552;BME280;63025;55.472;38.432;2022-09-12T07:50:56;100422.28;;;11.51;72.28
74552;BME280;63025;55.472;38.432;2022-09-12T07:53:22;100426.63;;;11.59;72.15
74552;BME280;63025;55.472;38.432;2022-09-12T07:55:54;100417.91;;;11.57;72.06
74552;BME280;63025;55.472;38.432;2022-09-12T07:58:21;100427.03;;;11.56;72.11
74552;BME280;63025;55.472;38.432;2022-09-12T08:00:47;100426.19;;;11.68;71.93
74552;BME280;63025;55.472;38.432;2022-09-12T08:03:13;100420.41;;;11.71;71.86
74552;BME280;63025;55.472;38.432;2022-09-12T08:05:38;100417.72;;;11.85;71.49
74552;BME280;63025;55.472;38.432;2022-09-12T08:08:04;100423.31;;;11.90;71.12
74552;BME280;63025;55.472;38.432;2022-09-12T08:10:30;100417.50;;;11.86;70.69
74552;BME280;63025;55.472;38.432;2022-09-12T08:12:56;100422.28;;;11.97;70.48
74552;BME280;63025;55.472;38.432;2022-09-12T08:15:22;100423.53;;;12.01;70.31
74552;BME280;63025;55.472;38.432;2022-09-12T08:17:48;100425.16;;;12.09;69.91
74552;BME280;63025;55.472;38.432;2022-09-12T08:20:13;100423.69;;;12.20;69.38
74552;BME280;63025;55.472;38.432;2022-09-12T08:22:39;100416.81;;;12.30;69.42
74552;BME280;63025;55.472;38.432;2022-09-12T08:25:06;100421.94;;;12.52;69.19
74552;BME280;63025;55.472;38.432;2022-09-12T08:27:32;100416.06;;;12.68;68.56
74552;BME280;63025;55.472;38.432;2022-09-12T08:29:58;100407.75;;;12.76;68.26
74552;BME280;63025;55.472;38.432;2022-09-12T08:32:23;100406.00;;;12.88;68.02
74552;BME280;63025;55.472;38.432;2022-09-12T08:34:49;100406.16;;;13.00;67.34
74552;BME280;63025;55.472;38.432;2022-09-12T08:37:15;100411.75;;;13.05;67.66
74552;BME280;63025;55.472;38.432;2022-09-12T08:39:40;100412.72;;;13.10;67.54
74552;BME280;63025;55.472;38.432;2022-09-12T08:42:09;100410.50;;;13.07;67.46
74552;BME280;63025;55.472;38.432;2022-09-12T08:47:43;100418.75;;;12.68;67.40
74552;BME280;63025;55.472;38.432;2022-09-12T08:57:56;100400.81;;;12.93;66.77
74552;BME280;63025;55.472;38.432;2022-09-12T09:00:22;100404.28;;;13.00;66.57
74552;BME280;63025;55.472;38.432;2022-09-12T09:11:56;100405.94;;;13.64;64.63
74552;BME280;63025;55.472;38.432;2022-09-12T09:14:48;100412.31;;;13.94;63.82
74552;BME280;63025;55.472;38.432;2022-09-12T09:17:34;100423.25;;;13.81;62.42
74552;BME280;63025;55.472;38.432;2022-09-12T09:23:03;100434.78;;;13.70;62.54
74552;BME280;63025;55.472;38.432;2022-09-12T09:25:51;100431.69;;;13.67;62.09
74552;BME280;63025;55.472;38.432;2022-09-12T09:28:23;100430.19;;;13.95;62.28
74552;BME280;63025;55.472;38.432;2022-09-12T09:30:50;100431.16;;;14.26;61.20
74552;BME280;63025;55.472;38.432;2022-09-12T09:33:21;100430.75;;;14.22;60.49
74552;BME280;63025;55.472;38.432;2022-09-12T09:35:57;100431.88;;;14.40;60.43
74552;BME280;63025;55.472;38.432;2022-09-12T09:43:45;100427.25;;;14.77;59.60
74552;BME280;63025;55.472;38.432;2022-09-12T09:46:11;100425.47;;;14.71;58.96
74552;BME280;63025;55.472;38.432;2022-09-12T09:48:44;100427.69;;;14.37;58.33
74552;BME280;63025;55.472;38.432;2022-09-12T09:51:10;100427.94;;;14.54;58.31
74552;BME280;63025;55.472;38.432;2022-09-12T09:53:47;100420.31;;;14.51;57.99
74552;BME280;63025;55.472;38.432;2022-09-12T09:58:54;100423.06;;;14.44;57.44
74552;BME280;63025;55.472;38.432;2022-09-12T10:01:19;100421.25;;;14.38;57.40
74552;BME280;63025;55.472;38.432;2022-09-12T10:03:53;100425.84;;;14.56;57.88
74552;BME280;63025;55.472;38.432;2022-09-12T10:08:48;100429.22;;;14.69;56.64
74552;BME280;63025;55.472;38.432;2022-09-12T10:18:48;100420.19;;;14.76;56.97
74552;BME280;63025;55.472;38.432;2022-09-12T10:21:35;100431.94;;;14.69;56.84
74552;BME280;63025;55.472;38.432;2022-09-12T10:26:32;100433.00;;;14.50;56.41
74552;BME280;63025;55.472;38.432;2022-09-12T10:29:24;100425.19;;;14.42;56.43
74552;BME280;63025;55.472;38.432;2022-09-12T10:31:51;100424.84;;;14.32;56.36
74552;BME280;63025;55.472;38.432;2022-09-12T10:34:30;100431.44;;;14.18;56.43
74552;BME280;63025;55.472;38.432;2022-09-12T10:37:04;100433.72;;;14.21;56.23
74552;BME280;63025;55.472;38.432;2022-09-12T10:39:31;100429.50;;;14.25;56.57
74552;BME280;63025;55.472;38.432;2022-09-12T10:41:59;100425.00;;;14.19;56.18
74552;BME280;63025;55.472;38.432;2022-09-12T10:44:27;100428.00;;;14.29;56.03
74552;BME280;63025;55.472;38.432;2022-09-12T10:46:56;100429.50;;;14.25;56.08
74552;BME280;63025;55.472;38.432;2022-09-12T10:49:28;100424.69;;;14.27;56.27
74552;BME280;63025;55.472;38.432;2022-09-12T10:51:55;100423.72;;;14.21;55.98
74552;BME280;63025;55.472;38.432;2022-09-12T10:54:25;100420.84;;;14.16;56.31
74552;BME280;63025;55.472;38.432;2022-09-12T11:00:12;100426.34;;;14.10;56.57
74552;BME280;63025;55.472;38.432;2022-09-12T11:05:49;100419.47;;;13.89;56.51
74552;BME280;63025;55.472;38.432;2022-09-12T11:08:22;100418.16;;;13.91;57.05
74552;BME280;63025;55.472;38.432;2022-09-12T11:33:42;100406.50;;;14.34;56.17
74552;BME280;63025;55.472;38.432;2022-09-12T11:36:37;100397.84;;;14.50;56.24
74552;BME280;63025;55.472;38.432;2022-09-12T11:39:14;100401.28;;;14.57;55.79
74552;BME280;63025;55.472;38.432;2022-09-12T11:41:46;100397.53;;;14.58;55.60
74552;BME280;63025;55.472;38.432;2022-09-12T11:44:44;100398.03;;;14.67;55.32
74552;BME280;63025;55.472;38.432;2022-09-12T11:47:12;100392.78;;;14.72;54.98
74552;BME280;63025;55.472;38.432;2022-09-12T11:49:47;100389.06;;;14.85;54.64
74552;BME280;63025;55.472;38.432;2022-09-12T11:52:19;100389.72;;;14.98;54.29
74552;BME280;63025;55.472;38.432;2022-09-12T11:55:03;100384.66;;;15.02;54.38
74552;BME280;63025;55.472;38.432;2022-09-12T11:57:44;100369.75;;;15.11;54.27
74552;BME280;63025;55.472;38.432;2022-09-12T12:00:22;100375.16;;;15.11;54.18
74552;BME280;63025;55.472;38.432;2022-09-12T12:05:54;100376.09;;;15.05;53.80
74552;BME280;63025;55.472;38.432;2022-09-12T12:08:24;100370.34;;;15.13;54.07
74552;BME280;63025;55.472;38.432;2022-09-12T12:11:00;100363.16;;;15.19;53.91
74552;BME280;63025;55.472;38.432;2022-09-12T12:13:32;100356.59;;;15.26;53.63
74552;BME280;63025;55.472;38.432;2022-09-12T12:16:03;100357.56;;;15.32;53.34
74552;BME280;63025;55.472;38.432;2022-09-12T12:18:32;100366.31;;;15.46;53.07
74552;BME280;63025;55.472;38.432;2022-09-12T12:34:43;100357.88;;;15.77;51.82
74552;BME280;63025;55.472;38.432;2022-09-12T12:52:43;100348.88;;;15.53;51.54
74552;BME280;63025;55.472;38.432;2022-09-12T12:55:27;100343.34;;;15.60;51.53
74552;BME280;63025;55.472;38.432;2022-09-12T12:57:56;100330.41;;;15.62;51.31
74552;BME280;63025;55.472;38.432;2022-09-12T13:05:59;100338.09;;;15.76;51.47
74552;BME280;63025;55.472;38.432;2022-09-12T13:08:31;100340.28;;;15.79;51.29
74552;BME280;63025;55.472;38.432;2022-09-12T13:11:09;100346.06;;;15.83;51.10
74552;BME280;63025;55.472;38.432;2022-09-12T13:13:37;100339.13;;;15.87;51.01
74552;BME280;63025;55.472;38.432;2022-09-12T13:16:04;100335.47;;;15.93;51.02
74552;BME280;63025;55.472;38.432;2022-09-12T13:18:47;100339.38;;;15.97;50.60
74552;BME280;63025;55.472;38.432;2022-09-12T13:21:18;100333.34;;;15.95;50.62
74552;BME280;63025;55.472;38.432;2022-09-12T13:24:03;100332.88;;;15.75;50.26
74552;BME280;63025;55.472;38.432;2022-09-12T13:26:33;100332.75;;;15.70;50.56
74552;BME280;63025;55.472;38.432;2022-09-12T13:29:18;100331.00;;;15.64;50.60
74552;BME280;63025;55.472;38.432;2022-09-12T13:31:46;100337.72;;;15.61;50.85
74552;BME280;63025;55.472;38.432;2022-09-12T13:34:18;100335.44;;;15.47;50.54
74552;BME280;63025;55.472;38.432;2022-09-12T13:39:48;100336.81;;;15.37;50.80
74552;BME280;63025;55.472;38.432;2022-09-12T13:44:58;100341.53;;;15.30;51.42
74552;BME280;63025;55.472;38.432;2022-09-12T13:47:31;100340.34;;;15.26;51.47
74552;BME280;63025;55.472;38.432;2022-09-12T13:49:58;100335.16;;;15.13;51.12
74552;BME280;63025;55.472;38.432;2022-09-12T13:52:29;100336.06;;;15.07;51.37
74552;BME280;63025;55.472;38.432;2022-09-12T13:54:57;100331.97;;;15.04;51.22
74552;BME280;63025;55.472;38.432;2022-09-12T13:59:54;100325.72;;;15.04;50.76
74552;BME280;63025;55.472;38.432;2022-09-12T14:02:24;100326.16;;;15.01;50.54
74552;BME280;63025;55.472;38.432;2022-09-12T14:04:52;100324.53;;;15.00;50.36
74552;BME280;63025;55.472;38.432;2022-09-12T14:07:57;100327.38;;;15.05;50.68
74552;BME280;63025;55.472;38.432;2022-09-12T14:10:39;100330.44;;;15.20;50.52
74552;BME280;63025;55.472;38.432;2022-09-12T14:15:46;100337.06;;;15.24;50.21
74552;BME280;63025;55.472;38.432;2022-09-12T14:18:29;100332.56;;;15.18;49.99
74552;BME280;63025;55.472;38.432;2022-09-12T14:21:04;100335.75;;;15.15;50.45
74552;BME280;63025;55.472;38.432;2022-09-12T14:23:38;100332.66;;;15.12;50.67
74552;BME280;63025;55.472;38.432;2022-09-12T14:26:09;100323.69;;;14.99;50.47
74552;BME280;63025;55.472;38.432;2022-09-12T14:28:39;100335.91;;;14.90;50.77
74552;BME280;63025;55.472;38.432;2022-09-12T14:37:15;100336.13;;;14.59;51.28
74552;BME280;63025;55.472;38.432;2022-09-12T14:39:20;100324.59;;;14.52;51.71
74552;BME280;63025;55.472;38.432;2022-09-12T14:41:48;100332.63;;;14.40;51.79
74552;BME280;63025;55.472;38.432;2022-09-12T14:44:21;100328.91;;;14.34;51.74
74552;BME280;63025;55.472;38.432;2022-09-12T14:46:49;100338.38;;;14.25;52.00
74552;BME280;63025;55.472;38.432;2022-09-12T14:49:31;100332.84;;;14.20;52.40
74552;BME280;63025;55.472;38.432;2022-09-12T14:52:03;100339.84;;;14.10;52.54
74552;BME280;63025;55.472;38.432;2022-09-12T14:57:01;100340.88;;;13.90;53.05
74552;BME280;63025;55.472;38.432;2022-09-12T15:07:31;100331.38;;;13.63;54.06
74552;BME280;63025;55.472;38.432;2022-09-12T15:10:00;100331.66;;;13.55;53.97
74552;BME280;63025;55.472;38.432;2022-09-12T15:12:27;100327.53;;;13.52;54.25
74552;BME280;63025;55.472;38.432;2022-09-12T15:15:05;100334.66;;;13.47;54.38
74552;BME280;63025;55.472;38.432;2022-09-12T15:17:31;100332.59;;;13.42;54.68
74552;BME280;63025;55.472;38.432;2022-09-12T15:19:57;100332.06;;;13.34;54.85
74552;BME280;63025;55.472;38.432;2022-09-12T15:22:23;100333.16;;;13.26;54.91
74552;BME280;63025;55.472;38.432;2022-09-12T15:24:50;100338.38;;;13.21;55.11
74552;BME280;63025;55.472;38.432;2022-09-12T15:27:16;100336.13;;;13.18;55.26
74552;BME280;63025;55.472;38.432;2022-09-12T15:29:41;100343.81;;;13.14;55.18
74552;BME280;63025;55.472;38.432;2022-09-12T15:32:12;100338.22;;;13.09;55.37
74552;BME280;63025;55.472;38.432;2022-09-12T15:34:39;100337.22;;;13.04;55.34
74552;BME280;63025;55.472;38.432;2022-09-12T15:37:12;100333.97;;;12.95;55.50
74552;BME280;63025;55.472;38.432;2022-09-12T15:39:38;100338.13;;;12.91;55.61
74552;BME280;63025;55.472;38.432;2022-09-12T15:42:04;100330.09;;;12.84;55.68
74552;BME280;63025;55.472;38.432;2022-09-12T15:44:30;100336.75;;;12.82;55.51
74552;BME280;63025;55.472;38.432;2022-09-12T15:46:55;100333.28;;;12.75;55.52
74552;BME280;63025;55.472;38.432;2022-09-12T15:49:21;100337.25;;;12.66;55.75
74552;BME280;63025;55.472;38.432;2022-09-12T15:51:46;100336.84;;;12.62;55.93
74552;BME280;63025;55.472;38.432;2022-09-12T15:54:13;100345.59;;;12.58;55.66